Time;durP1;ratioP1;P1;durP2;ratioP2;P2;SDS_P1;SDS_P2;PMS_P1;PMS_P2;Temp;Humidity;BMP_temperature;BMP_pressure;BME280_temperature;BME280_humidity;BME280_pressure;Samples;Min_cycle;Max_cycle;Signal;HPM_P1;HPM_P2
2022/04/16 00:01:03;;;;;;;18.38;13.75;;;10.70;99.90;;;;;;7333595;19;111477;-87
2022/04/16 00:03:31;;;;;;;17.58;13.13;;;10.60;99.90;;;;;;7335481;19;110067;-87
2022/04/16 00:05:58;;;;;;;14.90;13.30;;;10.60;99.90;;;;;;7335805;19;111098;-87
2022/04/16 00:08:29;;;;;;;17.08;13.30;;;10.70;99.90;;;;;;7334943;19;112340;-87
2022/04/16 00:10:56;;;;;;;15.30;12.82;;;10.70;99.90;;;;;;7333245;19;111240;-87
2022/04/16 00:13:23;;;;;;;19.48;13.48;;;10.70;99.90;;;;;;7333585;19;114003;-86
2022/04/16 00:15:52;;;;;;;14.68;13.07;;;10.60;99.90;;;;;;7331515;19;112941;-88
2022/04/16 00:18:20;;;;;;;14.95;13.45;;;10.60;99.90;;;;;;7330539;19;111131;-87
2022/04/16 00:20:49;;;;;;;14.32;12.88;;;10.50;99.90;;;;;;7336043;19;111931;-87
2022/04/16 00:23:19;;;;;;;16.85;13.23;;;10.50;99.90;;;;;;7333242;19;111371;-87
2022/04/16 00:25:48;;;;;;;16.20;13.10;;;10.60;99.90;;;;;;7333108;19;113687;-87
2022/04/16 00:28:16;;;;;;;16.05;13.52;;;10.50;99.90;;;;;;7331384;19;111933;-87
2022/04/16 00:30:43;;;;;;;14.85;13.07;;;10.40;99.90;;;;;;7333298;19;110733;-87
2022/04/16 00:33:14;;;;;;;16.95;13.15;;;10.40;99.90;;;;;;7334014;19;110821;-87
2022/04/16 00:35:42;;;;;;;16.45;14.05;;;10.40;99.90;;;;;;7332145;19;111513;-86
2022/04/16 00:38:10;;;;;;;19.80;12.88;;;10.40;99.90;;;;;;7331309;19;110997;-86
2022/04/16 00:40:37;;;;;;;17.90;13.50;;;10.30;99.90;;;;;;7331300;19;111364;-87
2022/04/16 00:43:05;;;;;;;17.17;13.73;;;10.30;99.90;;;;;;7333838;19;111779;-88
2022/04/16 00:45:33;;;;;;;16.38;13.55;;;10.30;99.90;;;;;;7334335;19;111340;-86
2022/04/16 00:48:00;;;;;;;16.70;14.27;;;10.20;99.90;;;;;;7334493;19;112198;-86
2022/04/16 00:50:27;;;;;;;19.33;14.48;;;10.10;99.90;;;;;;7332162;19;111539;-87
2022/04/16 00:52:55;;;;;;;15.98;13.35;;;10.10;99.90;;;;;;7334572;19;111775;-87
2022/04/16 00:55:22;;;;;;;15.45;13.00;;;10.10;99.90;;;;;;7331345;19;115186;-86
2022/04/16 00:57:49;;;;;;;17.58;14.23;;;10.20;99.90;;;;;;7332199;19;110763;-87
2022/04/16 01:00:16;;;;;;;;;;;10.10;99.90;;;;;;7332073;19;111278;-87
2022/04/16 01:02:43;;;;;;;18.55;13.60;;;10.00;99.90;;;;;;7338120;19;107603;-85
2022/04/16 01:05:12;;;;;;;17.83;14.02;;;10.00;99.90;;;;;;7334110;19;109919;-88
2022/04/16 01:08:02;;;;;;;19.13;14.85;;;9.90;99.90;;;;;;7331672;19;111612;-87
2022/04/16 01:10:32;;;;;;;19.67;14.52;;;9.90;99.90;;;;;;7332535;19;110233;-87
2022/04/16 01:13:04;;;;;;;19.20;14.68;;;9.90;99.90;;;;;;7334096;19;113212;-88
2022/04/16 01:15:31;;;;;;;20.65;14.65;;;9.90;99.90;;;;;;7332262;19;111925;-87
2022/04/16 01:18:02;;;;;;;19.88;15.20;;;9.90;99.90;;;;;;7331531;19;110349;-86
2022/04/16 01:20:36;;;;;;;18.15;14.60;;;9.90;99.90;;;;;;7328824;19;110765;-86
2022/04/16 01:23:05;;;;;;;18.92;14.45;;;9.90;99.90;;;;;;7330006;19;111340;-86
2022/04/16 01:25:35;;;;;;;21.48;15.77;;;9.90;99.90;;;;;;7333034;19;110449;-86
2022/04/16 01:28:03;;;;;;;20.95;15.45;;;9.90;99.90;;;;;;7336666;19;110474;-86
2022/04/16 01:30:30;;;;;;;20.25;15.35;;;9.80;99.90;;;;;;7334319;19;110294;-86
2022/04/16 01:32:57;;;;;;;18.45;14.52;;;9.70;99.90;;;;;;7329783;19;111221;-86
2022/04/16 01:35:25;;;;;;;20.30;16.05;;;9.70;99.90;;;;;;7332536;19;112470;-86
2022/04/16 01:37:52;;;;;;;21.58;16.02;;;9.80;99.90;;;;;;7332445;19;112392;-87
2022/04/16 01:40:20;;;;;;;23.27;16.50;;;9.80;99.90;;;;;;7329674;19;112103;-87
2022/04/16 01:42:48;;;;;;;21.65;16.25;;;9.80;99.90;;;;;;7332761;19;110660;-86
2022/04/16 01:45:17;;;;;;;21.20;15.55;;;9.70;99.90;;;;;;7330689;19;110881;-86
2022/04/16 01:47:46;;;;;;;25.80;16.00;;;9.70;99.90;;;;;;7337822;19;111556;-87
2022/04/16 01:50:13;;;;;;;22.65;15.45;;;9.70;99.90;;;;;;7330168;19;109941;-87
2022/04/16 01:52:43;;;;;;;21.50;15.52;;;9.60;99.90;;;;;;7330450;19;113079;-87
2022/04/16 01:55:12;;;;;;;19.35;15.55;;;9.70;99.90;;;;;;7334452;19;114982;-86
2022/04/16 01:57:39;;;;;;;23.08;16.17;;;9.70;99.90;;;;;;7339439;19;110112;-86
2022/04/16 02:00:08;;;;;;;22.58;16.25;;;9.70;99.90;;;;;;7334222;19;111438;-88
2022/04/16 02:02:36;;;;;;;19.38;15.90;;;9.70;99.90;;;;;;7337355;19;111798;-87
2022/04/16 02:05:09;;;;;;;27.33;17.00;;;9.70;99.90;;;;;;7333655;19;111450;-88
2022/04/16 02:07:38;;;;;;;21.58;16.65;;;9.70;99.90;;;;;;7339276;19;110909;-87
2022/04/16 02:10:06;;;;;;;22.17;17.25;;;9.70;99.90;;;;;;7342572;19;112156;-87
2022/04/16 02:12:35;;;;;;;24.25;17.85;;;9.60;99.90;;;;;;7339786;19;111754;-86
2022/04/16 02:15:03;;;;;;;27.25;17.80;;;9.40;99.90;;;;;;7338527;19;114882;-87
2022/04/16 02:17:32;;;;;;;26.90;18.08;;;9.30;99.90;;;;;;7339500;19;110884;-86
2022/04/16 02:19:59;;;;;;;25.30;17.27;;;9.30;99.90;;;;;;7337248;19;111808;-87
2022/04/16 02:22:26;;;;;;;23.55;17.42;;;9.40;99.90;;;;;;7334957;19;111797;-87
2022/04/16 02:24:53;;;;;;;25.10;18.00;;;9.30;99.90;;;;;;7334479;19;110615;-86
2022/04/16 02:27:21;;;;;;;28.02;17.55;;;9.30;99.90;;;;;;7336587;19;114722;-87
2022/04/16 02:29:48;;;;;;;25.48;17.25;;;9.30;99.90;;;;;;7335851;19;111912;-86
2022/04/16 02:32:15;;;;;;;25.70;17.60;;;9.30;99.90;;;;;;7341063;19;111659;-87
2022/04/16 02:34:42;;;;;;;21.55;16.85;;;9.30;99.90;;;;;;7336718;19;111988;-86
2022/04/16 02:37:09;;;;;;;23.42;17.20;;;9.30;99.90;;;;;;7338461;19;111115;-88
2022/04/16 02:39:36;;;;;;;19.52;15.80;;;9.40;99.90;;;;;;7334427;19;113912;-87
2022/04/16 02:42:03;;;;;;;;;;;9.40;99.90;;;;;;7336842;19;114823;-86
2022/04/16 02:47:15;;;;;;;26.27;16.65;;;9.20;99.90;;;;;;7338531;19;110680;-86
2022/04/16 02:49:43;;;;;;;26.30;17.00;;;9.20;99.90;;;;;;7334658;19;110764;-88
2022/04/16 02:52:13;;;;;;;25.13;16.33;;;9.10;99.90;;;;;;7335060;19;111586;-87
2022/04/16 02:54:41;;;;;;;25.05;17.25;;;9.10;99.90;;;;;;7340501;19;111388;-86
2022/04/16 02:57:08;;;;;;;23.13;16.70;;;9.20;99.90;;;;;;7335699;19;110955;-85
2022/04/16 02:59:35;;;;;;;23.60;16.70;;;9.30;99.90;;;;;;7333603;19;111421;-87
2022/04/16 03:02:03;;;;;;;26.48;16.58;;;9.20;99.90;;;;;;7334914;19;111864;-85
2022/04/16 03:04:30;;;;;;;22.38;16.35;;;9.20;99.90;;;;;;7334179;19;111398;-86
2022/04/16 03:06:58;;;;;;;26.63;16.85;;;9.10;99.90;;;;;;7333498;19;111422;-86
2022/04/16 03:09:25;;;;;;;23.75;17.45;;;9.10;99.90;;;;;;7334460;19;111205;-87
2022/04/16 03:11:52;;;;;;;18.83;16.17;;;9.00;99.90;;;;;;7336474;19;110039;-87
2022/04/16 03:19:50;;;;;;;22.85;16.95;;;9.00;99.90;;;;;;7336299;19;112091;-88
2022/04/16 03:22:17;;;;;;;23.13;16.15;;;8.90;99.90;;;;;;7334116;19;113062;-88
2022/04/16 03:24:45;;;;;;;27.33;18.10;;;8.90;99.90;;;;;;7335296;19;114072;-86
2022/04/16 03:27:12;;;;;;;28.02;18.63;;;8.90;99.90;;;;;;7336505;19;111182;-86
2022/04/16 03:29:39;;;;;;;25.83;17.88;;;8.80;99.90;;;;;;7333322;19;110965;-87
2022/04/16 03:32:07;;;;;;;24.88;18.15;;;8.80;99.90;;;;;;7335196;19;110466;-86
2022/04/16 03:34:34;;;;;;;27.95;18.17;;;8.80;99.90;;;;;;7335225;19;114175;-86
2022/04/16 03:37:01;;;;;;;26.05;18.35;;;8.80;99.90;;;;;;7334972;19;111984;-88
2022/04/16 03:39:28;;;;;;;26.05;18.15;;;8.80;99.90;;;;;;7341799;19;110238;-88
2022/04/16 03:41:55;;;;;;;23.80;18.33;;;8.80;99.90;;;;;;7333496;19;112197;-88
2022/04/16 03:44:22;;;;;;;25.83;18.13;;;8.70;99.90;;;;;;7333519;19;110310;-86
2022/04/16 03:46:49;;;;;;;29.73;17.58;;;8.70;99.90;;;;;;7336703;19;111730;-86
2022/04/16 03:49:19;;;;;;;30.35;17.33;;;8.80;99.90;;;;;;7334165;19;112197;-87
2022/04/16 03:51:46;;;;;;;25.73;18.05;;;8.80;99.90;;;;;;7335862;19;111551;-87
2022/04/16 04:00:00;;;;;;;26.73;19.33;;;8.70;99.90;;;;;;7339557;19;111285;-87
2022/04/16 04:02:31;;;;;;;26.73;18.60;;;8.70;99.90;;;;;;7335039;19;114703;-87
2022/04/16 04:04:58;;;;;;;28.48;18.40;;;8.60;99.90;;;;;;7334373;19;111420;-85
2022/04/16 04:07:26;;;;;;;26.98;19.58;;;8.70;99.90;;;;;;7334696;19;111598;-87
2022/04/16 04:09:53;;;;;;;30.95;18.73;;;8.70;99.90;;;;;;7334931;19;115925;-87
2022/04/16 04:12:20;;;;;;;30.90;20.08;;;8.60;99.90;;;;;;7333352;19;112706;-86
2022/04/16 04:14:47;;;;;;;29.63;19.85;;;8.60;99.90;;;;;;7335350;19;114520;-87
2022/04/16 04:17:15;;;;;;;30.80;20.13;;;8.50;99.90;;;;;;7332999;19;112240;-87
2022/04/16 04:19:44;;;;;;;31.83;20.65;;;8.50;99.90;;;;;;7332092;19;111327;-86
2022/04/16 04:22:14;;;;;;;29.20;19.17;;;8.50;99.90;;;;;;7339752;19;111359;-89
2022/04/16 04:24:43;;;;;;;29.02;20.48;;;8.50;99.90;;;;;;7334543;19;109871;-86
2022/04/16 04:27:10;;;;;;;27.58;19.92;;;8.50;99.90;;;;;;7334776;19;111473;-87
2022/04/16 04:29:38;;;;;;;31.13;19.67;;;8.50;99.90;;;;;;7335205;19;111816;-86
2022/04/16 04:32:06;;;;;;;29.23;20.33;;;8.60;99.90;;;;;;7332780;19;110394;-85
2022/04/16 04:34:33;;;;;;;28.13;20.27;;;8.50;99.90;;;;;;7332376;19;112406;-86
2022/04/16 04:37:00;;;;;;;31.13;20.73;;;8.40;99.90;;;;;;7333413;19;110730;-86
2022/04/16 04:39:28;;;;;;;29.40;20.55;;;8.40;99.90;;;;;;7334729;19;109993;-86
2022/04/16 04:41:55;;;;;;;30.50;21.70;;;8.40;99.90;;;;;;7331467;19;111407;-85
2022/04/16 04:44:22;;;;;;;28.70;19.95;;;8.40;99.90;;;;;;7337205;19;111883;-87
2022/04/16 04:46:52;;;;;;;34.20;22.40;;;8.30;99.90;;;;;;7332080;19;111325;-87
2022/04/16 04:49:19;;;;;;;34.38;22.00;;;8.20;99.90;;;;;;7334143;19;111083;-87
2022/04/16 04:51:47;;;;;;;34.88;22.15;;;8.20;99.90;;;;;;7334003;19;110546;-86
2022/04/16 04:54:14;;;;;;;34.63;22.25;;;8.10;99.90;;;;;;7332349;19;111351;-86
2022/04/16 04:56:41;;;;;;;37.10;22.48;;;8.10;99.90;;;;;;7331497;19;111507;-87
2022/04/16 04:59:08;;;;;;;34.08;22.55;;;8.20;99.90;;;;;;7334108;19;111285;-87
2022/04/16 05:01:36;;;;;;;33.83;21.25;;;8.20;99.90;;;;;;7331509;19;111442;-87
2022/04/16 05:04:03;;;;;;;33.75;21.15;;;8.20;99.90;;;;;;7332394;19;112495;-86
2022/04/16 05:06:30;;;;;;;31.77;21.13;;;8.20;99.90;;;;;;7338843;19;111409;-85
2022/04/16 05:08:58;;;;;;;33.72;21.95;;;8.30;99.90;;;;;;7330189;19;111853;-87
2022/04/16 05:11:25;;;;;;;;;;;8.20;99.90;;;;;;7332092;19;110485;-86
2022/04/16 05:13:51;;;;;;;33.55;23.17;;;8.20;99.90;;;;;;7339180;19;113149;-86
2022/04/16 05:16:19;;;;;;;33.67;21.98;;;8.20;99.90;;;;;;7333069;19;111852;-86
2022/04/16 05:18:46;;;;;;;32.08;21.27;;;8.20;99.90;;;;;;7332815;19;110529;-86
2022/04/16 05:21:13;;;;;;;30.92;20.73;;;8.30;99.90;;;;;;7329293;19;113920;-86
2022/04/16 05:23:40;;;;;;;31.15;22.15;;;8.30;99.90;;;;;;7330403;19;111632;-87
2022/04/16 05:26:09;;;;;;;34.20;22.20;;;8.40;99.90;;;;;;7331101;19;112380;-86
2022/04/16 05:28:38;;;;;;;39.97;23.25;;;8.40;99.90;;;;;;7337617;19;114748;-87
2022/04/16 05:31:06;;;;;;;35.78;23.48;;;8.40;99.90;;;;;;7340261;19;110536;-86
2022/04/16 05:36:19;;;;;;;35.35;23.70;;;8.40;99.90;;;;;;7338605;19;112413;-85
2022/04/16 05:38:46;;;;;;;35.58;23.30;;;8.50;99.90;;;;;;7336783;19;110378;-86
2022/04/16 05:41:14;;;;;;;35.65;23.02;;;8.50;99.90;;;;;;7337454;19;111849;-85
2022/04/16 05:43:42;;;;;;;36.53;23.92;;;8.60;99.90;;;;;;7337975;19;111939;-86
2022/04/16 05:46:09;;;;;;;35.80;23.10;;;8.70;99.90;;;;;;7337339;19;110001;-89
2022/04/16 05:48:39;;;;;;;31.67;22.80;;;8.80;99.90;;;;;;7335508;19;111778;-86
2022/04/16 05:51:07;;;;;;;36.50;24.40;;;8.90;99.90;;;;;;7341466;19;111172;-86
2022/04/16 05:53:34;;;;;;;35.58;23.23;;;8.90;99.90;;;;;;7341396;19;111195;-86
2022/04/16 05:56:01;;;;;;;38.55;23.50;;;9.00;99.90;;;;;;7342016;19;111860;-86
2022/04/16 05:58:28;;;;;;;35.80;23.05;;;9.10;99.90;;;;;;7343758;19;110390;-87
2022/04/16 06:00:55;;;;;;;35.67;23.83;;;9.20;99.90;;;;;;7339956;19;111209;-87
2022/04/16 06:03:23;;;;;;;34.67;24.23;;;9.30;99.90;;;;;;7342817;19;112119;-88
2022/04/16 06:05:52;;;;;;;38.10;24.58;;;9.30;99.90;;;;;;7339773;19;111860;-85
2022/04/16 06:08:36;;;;;;;39.80;24.92;;;9.40;99.90;;;;;;7341544;19;110443;-86
2022/04/16 06:11:04;;;;;;;42.05;24.67;;;9.40;99.90;;;;;;7346451;19;110760;-87
2022/04/16 06:13:31;;;;;;;36.78;23.92;;;9.50;99.90;;;;;;7340006;19;111348;-87
2022/04/16 06:15:59;;;;;;;39.65;24.77;;;9.50;99.90;;;;;;7343239;19;112026;-88
2022/04/16 06:18:27;;;;;;;41.28;24.48;;;9.60;99.90;;;;;;7340323;19;111729;-87
2022/04/16 06:20:56;;;;;;;38.45;24.60;;;9.70;99.90;;;;;;7336150;19;113399;-87
2022/04/16 06:23:24;;;;;;;37.42;24.02;;;9.80;99.90;;;;;;7339325;19;111046;-86
2022/04/16 06:25:51;;;;;;;38.20;24.58;;;9.80;99.90;;;;;;7337616;19;110731;-87
2022/04/16 06:28:18;;;;;;;36.80;23.55;;;9.90;99.90;;;;;;7336736;19;110391;-89
2022/04/16 06:30:45;;;;;;;36.17;25.00;;;9.90;99.90;;;;;;7338637;19;111823;-89
2022/04/16 06:33:12;;;;;;;35.03;24.08;;;10.00;99.90;;;;;;7344348;19;111610;-89
2022/04/16 06:35:40;;;;;;;33.17;23.75;;;10.10;99.90;;;;;;7337372;19;114022;-89
2022/04/16 06:38:07;;;;;;;40.25;25.30;;;10.20;99.90;;;;;;7339538;19;110380;-88
2022/04/16 06:40:34;;;;;;;41.22;24.30;;;10.20;99.90;;;;;;7337898;19;113088;-87
2022/04/16 06:43:02;;;;;;;41.30;24.70;;;10.30;99.90;;;;;;7339876;19;111689;-90
2022/04/16 06:45:30;;;;;;;45.15;24.70;;;10.40;99.90;;;;;;7337242;19;111538;-89
2022/04/16 06:47:57;;;;;;;34.17;23.63;;;10.50;99.90;;;;;;7340097;19;110766;-90
2022/04/16 06:50:24;;;;;;;39.78;23.67;;;10.60;99.90;;;;;;7332979;19;113572;-89
2022/04/16 06:52:54;;;;;;;38.67;24.10;;;10.60;99.90;;;;;;7334145;19;111393;-88
2022/04/16 06:55:22;;;;;;;35.83;23.50;;;10.70;99.90;;;;;;7347834;19;111310;-91
2022/04/16 06:57:49;;;;;;;35.22;23.05;;;10.80;99.90;;;;;;7339359;19;110456;-89
2022/04/16 07:00:16;;;;;;;35.35;23.42;;;10.90;99.90;;;;;;7340904;19;111697;-88
2022/04/16 07:02:43;;;;;;;36.42;24.15;;;10.90;99.90;;;;;;7341371;19;112120;-89
2022/04/16 07:05:10;;;;;;;36.33;24.67;;;10.90;99.90;;;;;;7338427;19;110385;-89
2022/04/16 07:07:37;;;;;;;38.38;23.45;;;11.00;99.90;;;;;;7338018;19;112863;-90
2022/04/16 07:10:05;;;;;;;34.10;23.73;;;11.10;99.90;;;;;;7336124;19;111622;-88
2022/04/16 07:12:33;;;;;;;33.50;22.63;;;11.20;99.90;;;;;;7338731;19;110380;-88
2022/04/16 07:14:59;;;;;;;36.63;22.27;;;11.30;99.90;;;;;;7340744;19;113782;-90
2022/04/16 07:17:27;;;;;;;30.33;22.42;;;11.40;99.90;;;;;;7348223;19;109839;-93
2022/04/16 07:19:55;;;;;;;29.35;22.80;;;11.40;99.90;;;;;;7350456;19;112506;-93
2022/04/16 07:22:22;;;;;;;35.10;22.48;;;11.30;99.90;;;;;;7342057;19;111601;-93
2022/04/16 07:24:49;;;;;;;32.08;23.30;;;11.50;99.90;;;;;;7344637;19;109831;-92
2022/04/16 07:27:17;;;;;;;34.90;22.83;;;11.50;99.90;;;;;;7344282;19;110969;-96
2022/04/16 07:29:47;;;;;;;32.35;21.35;;;11.60;99.90;;;;;;7350084;19;109811;-94
2022/04/16 07:32:14;;;;;;;38.35;21.63;;;11.80;99.90;;;;;;7346073;19;110361;-91
2022/04/16 07:34:41;;;;;;;33.63;22.33;;;11.90;99.90;;;;;;7351698;19;110316;-92
2022/04/16 07:37:09;;;;;;;28.58;22.27;;;12.10;99.90;;;;;;7347408;19;110616;-95
2022/04/16 07:39:36;;;;;;;29.85;20.83;;;12.20;99.90;;;;;;7361605;19;110479;-94
2022/04/16 07:42:03;;;;;;;25.75;18.52;;;12.40;99.90;;;;;;7348094;19;110345;-95
2022/04/16 07:44:31;;;;;;;33.30;19.40;;;12.50;99.90;;;;;;7362203;19;109529;-96
2022/04/16 07:46:58;;;;;;;31.77;18.52;;;12.60;99.90;;;;;;7355021;19;110174;-95
2022/04/16 07:49:25;;;;;;;31.17;18.00;;;12.70;99.90;;;;;;7364605;19;113092;-96
2022/04/16 07:51:54;;;;;;;27.23;19.27;;;12.70;99.90;;;;;;7352236;19;110135;-94
2022/04/16 07:54:22;;;;;;;29.50;18.25;;;12.90;99.90;;;;;;7365762;19;112196;-96
2022/04/16 07:56:50;;;;;;;37.13;18.63;;;12.90;99.90;;;;;;7377676;19;111744;-96
2022/04/16 07:59:18;;;;;;;24.77;15.98;;;13.00;99.90;;;;;;7351625;19;110389;-94
2022/04/16 08:01:46;;;;;;;23.52;16.23;;;13.20;99.90;;;;;;7351988;19;110315;-94
2022/04/16 08:04:23;;;;;;;21.17;14.57;;;13.20;99.90;;;;;;7348584;19;110731;-95
2022/04/16 08:07:11;;;;;;;20.08;14.20;;;13.40;99.90;;;;;;7368377;19;109438;-96
2022/04/16 08:11:02;;;;;;;26.13;14.00;;;13.40;99.90;;;;;;7370853;19;109937;-96
2022/04/16 08:15:12;;;;;;;26.42;13.35;;;13.50;99.90;;;;;;7369277;19;109057;-96
2022/04/16 08:18:59;;;;;;;18.73;13.88;;;13.50;99.90;;;;;;7371680;19;109622;-96
2022/04/16 08:22:50;;;;;;;27.55;13.57;;;13.70;99.90;;;;;;7371310;19;109842;-96
2022/04/16 08:26:34;;;;;;;18.50;13.30;;;13.90;99.90;;;;;;7371779;19;108917;-96
2022/04/16 08:32:46;;;;;;;23.13;12.65;;;14.10;99.90;;;;;;7351384;19;109837;-96
2022/04/16 08:38:06;;;;;;;20.67;12.32;;;14.40;99.90;;;;;;7339081;19;109929;-88
2022/04/16 08:40:33;;;;;;;25.63;11.85;;;14.40;99.90;;;;;;7336559;19;110720;-88
2022/04/16 08:43:01;;;;;;;17.13;11.40;;;14.50;99.90;;;;;;7334148;19;114130;-87
2022/04/16 08:45:32;;;;;;;17.48;12.63;;;14.60;99.90;;;;;;7336012;19;111852;-87
2022/04/16 08:48:00;;;;;;;14.25;11.48;;;14.60;99.90;;;;;;7345879;19;110605;-96
2022/04/16 08:50:28;;;;;;;17.02;11.77;;;14.70;99.90;;;;;;7345324;19;112362;-92
2022/04/16 08:52:57;;;;;;;22.05;11.82;;;14.70;99.90;;;;;;7347713;19;111908;-94
2022/04/16 08:55:24;;;;;;;18.77;11.90;;;14.80;99.90;;;;;;7345205;19;113317;-94
2022/04/16 08:57:53;;;;;;;20.38;12.68;;;15.00;99.90;;;;;;7341150;19;113084;-94
2022/04/16 09:00:21;;;;;;;16.08;12.07;;;15.00;99.90;;;;;;7350056;19;109841;-96
2022/04/16 09:02:57;;;;;;;14.98;11.25;;;15.00;99.90;;;;;;7345690;19;110021;-93
2022/04/16 09:05:27;;;;;;;20.65;11.90;;;15.10;99.90;;;;;;7343884;19;112072;-94
2022/04/16 09:07:57;;;;;;;27.70;10.82;;;15.10;99.90;;;;;;7345713;19;112115;-93
2022/04/16 09:10:29;;;;;;;24.55;9.93;;;15.10;99.90;;;;;;7342623;19;111324;-95
2022/04/16 09:12:58;;;;;;;16.00;9.80;;;15.20;99.90;;;;;;7353906;19;109602;-93
2022/04/16 09:15:27;;;;;;;13.20;9.55;;;15.30;99.90;;;;;;7356819;19;108239;-94
2022/04/16 09:18:05;;;;;;;17.65;9.30;;;15.40;99.90;;;;;;7352838;19;107077;-95
2022/04/16 09:20:38;;;;;;;9.63;7.72;;;15.50;99.90;;;;;;7352348;19;107352;-94
2022/04/16 09:23:19;;;;;;;15.70;10.13;;;15.60;99.90;;;;;;7345516;19;107695;-94
2022/04/16 09:25:47;;;;;;;19.02;10.77;;;15.70;99.70;;;;;;7348446;19;110655;-96
2022/04/16 09:28:17;;;;;;;21.10;10.95;;;15.70;99.60;;;;;;7356734;19;109653;-95
2022/04/16 09:30:52;;;;;;;16.38;10.38;;;15.80;99.90;;;;;;7351514;19;110632;-94
2022/04/16 09:33:20;;;;;;;10.90;9.75;;;15.70;99.50;;;;;;7344664;19;110184;-96
2022/04/16 09:35:51;;;;;;;18.58;8.68;;;15.80;99.60;;;;;;7347271;19;107258;-93
2022/04/16 09:38:18;;;;;;;8.52;6.43;;;15.90;99.20;;;;;;7350958;19;107493;-94
2022/04/16 09:40:47;;;;;;;8.50;7.18;;;15.80;98.40;;;;;;7347163;19;107433;-94
2022/04/16 09:43:15;;;;;;;9.30;7.03;;;15.90;98.10;;;;;;7355721;19;110448;-95
2022/04/16 09:45:42;;;;;;;10.85;6.97;;;16.00;98.20;;;;;;7351865;19;109356;-96
2022/04/16 09:48:12;;;;;;;12.73;6.88;;;16.10;97.80;;;;;;7361757;19;108705;-96
2022/04/16 09:50:47;;;;;;;16.73;6.40;;;16.10;97.00;;;;;;7357735;19;106833;-96
2022/04/16 09:53:17;;;;;;;8.38;6.95;;;16.20;97.50;;;;;;7345887;19;107349;-93
2022/04/16 09:55:44;;;;;;;9.82;7.80;;;16.30;97.00;;;;;;7353111;19;106799;-96
2022/04/16 09:58:13;;;;;;;8.45;7.10;;;16.40;96.80;;;;;;7363893;19;106718;-95
2022/04/16 10:00:43;;;;;;;10.88;7.93;;;16.40;97.00;;;;;;7360794;19;107986;-95
2022/04/16 10:03:32;;;;;;;14.27;7.50;;;16.40;96.60;;;;;;7344301;19;107139;-95
2022/04/16 10:06:00;;;;;;;14.35;7.60;;;16.40;96.50;;;;;;7348535;19;106906;-92
2022/04/16 10:08:27;;;;;;;7.38;6.63;;;16.30;96.30;;;;;;7340648;19;107461;-91
2022/04/16 10:10:57;;;;;;;7.72;7.00;;;16.30;96.40;;;;;;7344840;19;110249;-95
2022/04/16 10:13:28;;;;;;;10.00;7.22;;;16.30;96.10;;;;;;7347124;19;108016;-94
2022/04/16 10:15:59;;;;;;;19.30;7.07;;;16.40;96.50;;;;;;7353073;19;107131;-96
2022/04/16 10:18:33;;;;;;;12.30;7.78;;;16.50;96.60;;;;;;7360541;19;107731;-95
2022/04/16 10:21:02;;;;;;;10.38;7.03;;;16.60;96.00;;;;;;7375558;19;110100;-96
2022/04/16 10:23:37;;;;;;;14.48;6.82;;;16.60;96.00;;;;;;7366775;19;107175;-96
2022/04/16 10:26:09;;;;;;;9.27;6.15;;;16.60;95.40;;;;;;7365493;19;107163;-96
2022/04/16 10:28:38;;;;;;;9.38;6.60;;;16.60;95.60;;;;;;7360469;19;110165;-94
2022/04/16 10:31:17;;;;;;;14.40;7.55;;;16.70;95.60;;;;;;7358609;19;107450;-96
2022/04/16 10:34:00;;;;;;;13.05;7.25;;;16.70;95.30;;;;;;7356309;19;111742;-95
2022/04/16 10:36:37;;;;;;;14.35;6.93;;;16.80;95.60;;;;;;7357199;19;110725;-95
2022/04/16 10:39:15;;;;;;;10.40;7.90;;;17.00;95.80;;;;;;7355582;19;110341;-96
2022/04/16 10:41:59;;;;;;;11.27;7.93;;;17.10;95.00;;;;;;7359315;19;109032;-96
2022/04/16 10:44:28;;;;;;;8.52;7.63;;;17.20;95.20;;;;;;7367471;19;109486;-96
2022/04/16 10:46:59;;;;;;;10.65;8.10;;;17.30;94.90;;;;;;7355457;19;108802;-95
2022/04/16 10:49:31;;;;;;;9.45;8.18;;;17.30;94.70;;;;;;7355470;19;110754;-96
2022/04/16 10:51:59;;;;;;;8.73;7.85;;;17.10;93.70;;;;;;7354239;19;109467;-95
2022/04/16 10:54:34;;;;;;;9.27;7.80;;;17.10;93.80;;;;;;7351400;19;107057;-95
2022/04/16 10:57:07;;;;;;;12.95;8.07;;;17.20;94.50;;;;;;7372142;19;108391;-94
2022/04/16 11:02:32;;;;;;;10.27;7.47;;;17.50;94.60;;;;;;7343631;19;109210;-94
2022/04/16 11:05:41;;;;;;;14.70;8.23;;;17.60;94.20;;;;;;7345708;19;107956;-95
2022/04/16 11:08:54;;;;;;;9.82;7.72;;;17.70;94.30;;;;;;7353031;19;107300;-93
2022/04/16 11:11:30;;;;;;;8.70;7.60;;;17.70;94.50;;;;;;7351507;19;108399;-90
2022/04/16 11:13:59;;;;;;;12.95;8.63;;;17.90;95.00;;;;;;7349724;19;107385;-92
2022/04/16 11:16:26;;;;;;;8.80;7.88;;;18.00;94.30;;;;;;7351862;19;106907;-94
2022/04/16 11:18:53;;;;;;;8.95;7.43;;;18.20;94.10;;;;;;7344540;19;111272;-91
2022/04/16 11:21:26;;;;;;;7.93;7.22;;;18.30;93.80;;;;;;7347791;19;107468;-89
2022/04/16 11:23:53;;;;;;;10.32;7.03;;;18.30;92.90;;;;;;7345897;19;108179;-95
2022/04/16 11:34:52;;;;;;;8.98;6.25;;;18.60;92.30;;;;;;7353491;19;107444;-94
2022/04/16 11:37:29;;;;;;;8.30;6.07;;;18.80;92.40;;;;;;7356082;19;107492;-94
2022/04/16 11:40:08;;;;;;;19.08;6.22;;;18.80;92.00;;;;;;7350761;19;108156;-95
2022/04/16 11:42:35;;;;;;;6.53;5.93;;;18.90;91.40;;;;;;7353950;19;107872;-96
2022/04/16 11:45:06;;;;;;;12.45;6.38;;;19.00;90.90;;;;;;7352940;19;107293;-91
2022/04/16 11:47:36;;;;;;;8.05;6.45;;;19.00;90.60;;;;;;7226950;19;117066;-90
2022/04/16 11:50:06;;;;;;;10.68;6.50;;;18.90;89.00;;;;;;7346420;19;108136;-94
2022/04/16 11:52:35;;;;;;;8.77;6.63;;;18.90;90.20;;;;;;7361577;19;108870;-95
2022/04/16 11:55:03;;;;;;;6.45;5.68;;;19.00;90.30;;;;;;7362609;19;108781;-94
2022/04/16 11:57:31;;;;;;;13.95;6.53;;;19.10;90.60;;;;;;7351560;19;107523;-93
2022/04/16 12:00:08;;;;;;;7.07;5.68;;;19.30;90.70;;;;;;7342258;19;109153;-93
2022/04/16 12:02:39;;;;;;;7.93;5.80;;;19.30;87.50;;;;;;7343039;19;109882;-94
2022/04/16 12:05:18;;;;;;;9.80;6.13;;;19.20;88.30;;;;;;7339172;19;107489;-90
2022/04/16 12:07:52;;;;;;;12.18;5.80;;;19.10;86.20;;;;;;7337227;19;109194;-92
2022/04/16 12:10:22;;;;;;;12.27;5.30;;;19.20;86.00;;;;;;7337098;19;109152;-93
2022/04/16 12:12:52;;;;;;;14.85;5.32;;;19.70;83.40;;;;;;7341178;19;109900;-94
2022/04/16 12:15:28;;;;;;;13.70;5.97;;;19.70;85.00;;;;;;7345156;19;109567;-94
2022/04/16 12:18:09;;;;;;;9.35;4.30;;;20.00;83.80;;;;;;7350623;19;107131;-95
2022/04/16 12:20:46;;;;;;;5.85;4.82;;;20.10;81.90;;;;;;7345811;19;107474;-94
2022/04/16 12:23:21;;;;;;;8.88;4.00;;;20.20;80.60;;;;;;7341492;19;108066;-94
2022/04/16 12:25:49;;;;;;;9.55;4.80;;;20.30;82.00;;;;;;7342054;19;107443;-91
2022/04/16 12:28:16;;;;;;;7.30;5.22;;;20.20;81.80;;;;;;7341408;19;108398;-90
2022/04/16 12:30:50;;;;;;;6.03;5.30;;;20.10;80.90;;;;;;7339749;19;108166;-93
2022/04/16 12:33:17;;;;;;;5.47;4.60;;;19.80;82.00;;;;;;7340802;19;107361;-94
2022/04/16 12:35:46;;;;;;;5.55;4.90;;;19.50;82.60;;;;;;7342173;19;108163;-93
2022/04/16 12:38:17;;;;;;;8.55;4.90;;;19.30;79.90;;;;;;7351768;19;108018;-95
2022/04/16 12:40:45;;;;;;;12.82;4.20;;;19.20;80.40;;;;;;7350342;19;108911;-95
2022/04/16 12:43:14;;;;;;;11.48;4.78;;;19.60;82.80;;;;;;7360654;19;109132;-95
2022/04/16 12:45:48;;;;;;;4.50;3.90;;;20.30;76.80;;;;;;7356969;19;108589;-94
2022/04/16 12:48:15;;;;;;;9.15;3.72;;;20.40;79.30;;;;;;7353735;19;107841;-89
2022/04/16 12:50:42;;;;;;;6.40;4.40;;;20.30;76.10;;;;;;7338567;19;109206;-91
2022/04/16 12:53:09;;;;;;;5.45;4.90;;;20.20;76.90;;;;;;7332993;19;108242;-89
2022/04/16 12:55:36;;;;;;;6.15;4.80;;;19.80;78.60;;;;;;7338113;19;108741;-91
2022/04/16 12:58:05;;;;;;;5.60;4.80;;;20.20;78.90;;;;;;7335123;19;107511;-92
2022/04/16 13:00:34;;;;;;;8.25;4.30;;;20.10;80.00;;;;;;7345242;19;107940;-89
2022/04/16 13:03:01;;;;;;;5.30;3.85;;;20.60;77.30;;;;;;7334318;19;107642;-88
2022/04/16 13:05:32;;;;;;;5.03;4.28;;;20.90;74.10;;;;;;7337601;19;108305;-93
2022/04/16 13:08:05;;;;;;;4.72;4.15;;;20.70;74.30;;;;;;7332882;19;108008;-92
2022/04/16 13:10:32;;;;;;;4.63;4.20;;;20.60;75.60;;;;;;7332453;19;110253;-88
2022/04/16 13:13:01;;;;;;;24.17;5.28;;;20.80;75.40;;;;;;7333694;19;110062;-91
2022/04/16 13:15:28;;;;;;;7.47;3.35;;;20.90;74.80;;;;;;7336230;19;108810;-91
2022/04/16 13:17:57;;;;;;;4.88;4.35;;;20.70;73.80;;;;;;7336786;19;110276;-92